createdAt,value
2023-05-24T00:01:25.569Z,999.90
2023-05-24T00:03:53.663Z,897.20
2023-05-24T00:06:21.667Z,919.90
2023-05-24T00:08:50.951Z,807.67
2023-05-24T00:11:18.858Z,796.93
2023-05-24T00:13:46.810Z,900.37
2023-05-24T00:16:14.697Z,934.03
2023-05-24T00:18:46.834Z,975.07
2023-05-24T00:21:15.313Z,995.87
2023-05-24T00:23:44.023Z,989.23
2023-05-24T00:26:13.159Z,974.47
2023-05-24T00:28:45.932Z,999.90
2023-05-24T00:31:13.720Z,999.90
2023-05-24T00:33:41.500Z,999.90
2023-05-24T00:36:09.858Z,999.90
2023-05-24T00:38:37.669Z,999.90
2023-05-24T00:41:05.754Z,999.90
2023-05-24T00:43:35.601Z,999.90
2023-05-24T00:46:16.443Z,999.90
2023-05-24T00:48:44.463Z,999.90
2023-05-24T00:51:14.917Z,999.90
2023-05-24T00:53:45.796Z,999.90
2023-05-24T00:56:14.890Z,999.90
2023-05-24T00:58:44.732Z,999.90
2023-05-24T01:01:13.171Z,999.90
2023-05-24T01:03:41.632Z,999.90
2023-05-24T01:06:10.350Z,999.90
2023-05-24T01:09:03.629Z,999.90
2023-05-24T01:11:41.976Z,979.20
2023-05-24T01:14:21.150Z,968.27
2023-05-24T01:16:56.414Z,975.20
2023-05-24T01:19:52.256Z,974.97
2023-05-24T01:22:41.083Z,881.57
2023-05-24T01:25:14.600Z,912.07
2023-05-24T01:27:44.780Z,979.70
2023-05-24T01:30:14.477Z,990.43
2023-05-24T01:32:43.007Z,975.20
2023-05-24T01:35:11.116Z,950.97
2023-05-24T01:37:38.898Z,982.17
2023-05-24T01:40:10.116Z,933.53
2023-05-24T01:42:46.510Z,885.63
2023-05-24T01:45:20.719Z,897.37
2023-05-24T01:48:02.915Z,855.00
2023-05-24T01:50:35.371Z,873.13
2023-05-24T01:53:07.787Z,925.63
2023-05-24T01:55:38.499Z,960.60
2023-05-24T01:58:09.335Z,935.83
2023-05-24T02:00:40.011Z,940.73
2023-05-24T02:03:08.144Z,875.30
2023-05-24T02:05:37.672Z,844.27
2023-05-24T02:08:07.109Z,796.90
2023-05-24T02:10:34.897Z,821.40
2023-05-24T02:13:02.676Z,889.33
2023-05-24T02:15:31.775Z,901.33
2023-05-24T02:18:01.454Z,909.03
2023-05-24T02:20:31.309Z,878.87
2023-05-24T02:23:00.330Z,845.00
2023-05-24T02:25:28.869Z,822.83
2023-05-24T02:27:56.617Z,812.90
2023-05-24T02:30:24.464Z,701.20
2023-05-24T02:32:53.833Z,815.47
2023-05-24T02:35:21.888Z,800.97
2023-05-24T02:37:50.139Z,855.23
2023-05-24T02:40:18.181Z,781.77
2023-05-24T02:42:46.138Z,744.50
2023-05-24T02:45:14.097Z,769.93
2023-05-24T02:47:41.962Z,721.00
2023-05-24T02:50:11.932Z,753.90
2023-05-24T02:52:39.680Z,761.53
2023-05-24T02:55:08.581Z,768.90
2023-05-24T02:57:37.859Z,743.33
2023-05-24T03:00:09.169Z,776.03
2023-05-24T03:02:38.585Z,751.97
2023-05-24T03:05:07.610Z,815.50
2023-05-24T03:07:36.757Z,762.60
2023-05-24T03:10:04.944Z,887.90
2023-05-24T03:12:32.750Z,822.07
2023-05-24T03:15:00.538Z,648.60
2023-05-24T03:17:28.481Z,561.90
2023-05-24T03:19:56.406Z,589.90
2023-05-24T03:22:24.194Z,605.67
2023-05-24T03:24:53.407Z,630.83
2023-05-24T03:27:21.196Z,628.80
2023-05-24T03:29:49.378Z,590.57
2023-05-24T03:32:21.125Z,505.10
2023-05-24T03:34:49.031Z,651.93
2023-05-24T03:37:17.337Z,546.57
2023-05-24T03:39:46.020Z,584.07
2023-05-24T03:42:31.166Z,847.17
2023-05-24T03:44:59.056Z,856.77
2023-05-24T03:47:27.020Z,394.43
2023-05-24T03:49:54.808Z,851.87
2023-05-24T03:52:22.680Z,301.27
2023-05-24T03:54:50.653Z,822.00
2023-05-24T03:57:18.779Z,861.67
2023-05-24T03:59:49.014Z,889.37
2023-05-24T04:02:16.852Z,887.63
2023-05-24T04:04:44.680Z,458.20
2023-05-24T04:07:15.496Z,430.20
2023-05-24T04:09:43.702Z,488.90
2023-05-24T04:12:12.601Z,423.43
2023-05-24T04:14:42.745Z,892.73
2023-05-24T04:17:12.391Z,299.83
2023-05-24T04:19:40.571Z,819.03
2023-05-24T04:22:08.372Z,793.87
2023-05-24T04:24:38.073Z,808.00
2023-05-24T04:27:07.992Z,786.47
2023-05-24T04:29:35.807Z,818.63
2023-05-24T04:32:03.703Z,800.07
2023-05-24T04:34:33.902Z,863.97
2023-05-24T04:37:02.119Z,323.30
2023-05-24T04:39:31.072Z,413.50
2023-05-24T04:42:00.506Z,558.33
2023-05-24T04:44:28.342Z,609.77
2023-05-24T04:46:56.174Z,659.23
2023-05-24T04:49:23.944Z,785.93
2023-05-24T04:51:55.114Z,911.67
2023-05-24T04:54:23.177Z,779.20
2023-05-24T04:56:51.534Z,827.37
2023-05-24T04:59:19.559Z,829.23
2023-05-24T05:01:48.366Z,804.73
2023-05-24T05:04:16.258Z,821.93
2023-05-24T05:06:44.743Z,803.27
2023-05-24T05:09:14.785Z,859.13
2023-05-24T05:11:43.258Z,775.27
2023-05-24T05:14:11.649Z,822.77
2023-05-24T05:16:41.175Z,938.60
2023-05-24T05:19:09.028Z,934.60
2023-05-24T05:21:39.547Z,999.90
2023-05-24T05:24:07.377Z,971.27
2023-05-24T05:26:36.632Z,987.57
2023-05-24T05:29:04.869Z,986.63
2023-05-24T05:31:32.673Z,946.07
2023-05-24T05:34:00.416Z,901.93
2023-05-24T05:36:28.231Z,876.10
2023-05-24T05:38:56.010Z,943.20
2023-05-24T05:41:23.766Z,986.20
2023-05-24T05:43:52.856Z,997.67
2023-05-24T05:46:22.162Z,980.23
2023-05-24T05:48:50.086Z,995.47
2023-05-24T05:51:17.858Z,999.90
2023-05-24T05:53:45.659Z,999.90
2023-05-24T05:56:13.536Z,999.90
2023-05-24T05:58:41.337Z,999.90
2023-05-24T06:01:10.569Z,999.90
2023-05-24T06:03:38.472Z,999.90
2023-05-24T06:06:06.413Z,999.90
2023-05-24T06:08:35.321Z,997.33
2023-05-24T06:11:03.545Z,961.23
2023-05-24T06:13:32.924Z,999.03
2023-05-24T06:16:01.325Z,971.90
2023-05-24T06:18:32.504Z,991.00
2023-05-24T06:21:00.249Z,930.73
2023-05-24T06:23:28.106Z,974.93
2023-05-24T06:25:56.110Z,989.70
2023-05-24T06:28:24.181Z,977.07
2023-05-24T06:30:52.047Z,917.60
2023-05-24T06:33:20.094Z,971.30
2023-05-24T06:35:49.559Z,929.40
2023-05-24T06:38:17.720Z,999.90
2023-05-24T06:40:45.802Z,908.40
2023-05-24T06:43:13.651Z,925.13
2023-05-24T06:45:41.894Z,890.07
2023-05-24T06:48:09.788Z,897.67
2023-05-24T06:50:39.143Z,968.43
2023-05-24T06:53:10.369Z,876.47
2023-05-24T06:55:38.521Z,890.93
2023-05-24T06:58:06.939Z,807.57
2023-05-24T07:00:34.727Z,858.87
2023-05-24T07:03:02.540Z,989.17
2023-05-24T07:05:30.279Z,942.77
2023-05-24T07:07:58.012Z,864.67
2023-05-24T07:10:27.146Z,865.60
2023-05-24T07:12:55.459Z,846.43
2023-05-24T07:15:23.558Z,907.47
2023-05-24T07:17:51.738Z,886.53
2023-05-24T07:20:19.656Z,921.30
2023-05-24T07:22:47.423Z,808.50
2023-05-24T07:25:15.517Z,806.43
2023-05-24T07:27:44.596Z,849.20
2023-05-24T07:30:23.795Z,618.87
2023-05-24T07:32:59.370Z,534.27
2023-05-24T07:35:28.621Z,469.07
2023-05-24T07:37:56.518Z,846.30
2023-05-24T07:40:24.577Z,892.97
2023-05-24T07:42:53.707Z,320.07
2023-05-24T07:45:21.741Z,871.90
2023-05-24T07:47:49.805Z,364.20
2023-05-24T07:50:18.423Z,810.60
2023-05-24T07:52:46.167Z,873.47
2023-05-24T07:55:14.511Z,838.50
2023-05-24T07:57:42.697Z,802.40
2023-05-24T08:00:14.625Z,820.17
2023-05-24T08:02:44.041Z,826.27
2023-05-24T08:05:13.483Z,793.80
2023-05-24T08:07:42.079Z,999.90
2023-05-24T08:10:12.633Z,766.10
2023-05-24T08:12:40.551Z,781.97
2023-05-24T08:15:09.137Z,775.10
2023-05-24T08:17:38.944Z,999.90
2023-05-24T08:20:09.710Z,999.90
2023-05-24T08:22:38.132Z,802.87
2023-05-24T08:25:07.147Z,845.13
2023-05-24T08:27:34.968Z,999.90
2023-05-24T08:30:04.294Z,210.77
2023-05-24T08:32:32.186Z,999.90
2023-05-24T08:35:18.230Z,793.53
2023-05-24T08:37:49.059Z,755.97
2023-05-24T08:40:17.607Z,813.53
2023-05-24T08:42:46.713Z,281.20
2023-05-24T08:45:16.266Z,853.07
2023-05-24T08:47:44.463Z,448.43
2023-05-24T08:50:13.958Z,571.13
2023-05-24T08:52:43.487Z,646.80
2023-05-24T08:55:12.492Z,563.40
2023-05-24T08:57:41.587Z,661.97
2023-05-24T09:00:12.744Z,575.43
2023-05-24T09:02:42.223Z,608.43
2023-05-24T09:05:12.140Z,782.03
2023-05-24T09:07:41.853Z,829.87
2023-05-24T09:10:10.874Z,856.40
2023-05-24T09:12:40.650Z,687.60
2023-05-24T09:15:09.548Z,704.67
2023-05-24T09:17:38.605Z,785.50
2023-05-24T09:20:09.058Z,776.33
2023-05-24T09:22:41.140Z,488.43
2023-05-24T09:25:13.873Z,453.30
2023-05-24T09:27:41.950Z,840.17
2023-05-24T09:30:12.469Z,784.10
2023-05-24T09:32:41.493Z,768.90
2023-05-24T09:35:10.743Z,766.50
2023-05-24T09:37:40.392Z,999.90
2023-05-24T09:40:20.887Z,999.90
2023-05-24T09:42:51.550Z,999.90
2023-05-24T09:45:19.665Z,798.00
2023-05-24T09:47:48.234Z,855.27
2023-05-24T09:50:17.999Z,362.20
2023-05-24T09:52:46.489Z,367.87
2023-05-24T09:55:15.289Z,406.37
2023-05-24T09:57:46.508Z,347.30
2023-05-24T10:00:15.924Z,289.23
2023-05-24T10:02:52.995Z,375.77
2023-05-24T10:05:22.520Z,386.20
2023-05-24T10:07:50.874Z,531.90
2023-05-24T10:10:19.140Z,460.23
2023-05-24T10:12:48.625Z,432.93
2023-05-24T10:15:16.749Z,385.00
2023-05-24T10:17:44.569Z,860.87
2023-05-24T10:20:13.297Z,468.27
2023-05-24T10:22:47.361Z,665.23
2023-05-24T10:25:18.593Z,823.07
2023-05-24T10:27:49.353Z,860.40
2023-05-24T10:30:27.796Z,871.17
2023-05-24T10:32:56.945Z,908.27
2023-05-24T10:35:27.400Z,801.23
2023-05-24T10:37:55.790Z,958.83
2023-05-24T10:40:26.029Z,486.20
2023-05-24T10:42:55.333Z,503.47
2023-05-24T10:45:35.609Z,482.87
2023-05-24T10:48:11.277Z,802.93
2023-05-24T10:50:39.177Z,826.87
2023-05-24T10:53:12.929Z,785.70
2023-05-24T10:55:53.723Z,804.97
2023-05-24T10:58:28.033Z,767.87
2023-05-24T11:00:56.124Z,999.90
2023-05-24T11:03:25.399Z,818.80
2023-05-24T11:05:55.423Z,842.07
2023-05-24T11:08:30.992Z,831.13
2023-05-24T11:11:23.486Z,226.20
2023-05-24T11:13:58.652Z,799.60
2023-05-24T11:16:38.696Z,789.67
2023-05-24T11:19:14.074Z,999.90
2023-05-24T11:21:42.162Z,724.50
2023-05-24T11:24:10.510Z,999.90
2023-05-24T11:26:38.444Z,806.53
2023-05-24T11:29:08.484Z,786.80
2023-05-24T11:31:42.439Z,816.17
2023-05-24T11:34:11.874Z,794.53
2023-05-24T11:36:39.876Z,244.67
2023-05-24T11:39:09.564Z,999.90
2023-05-24T11:41:38.915Z,821.80
2023-05-24T11:44:09.903Z,846.63
2023-05-24T11:46:39.476Z,728.57
2023-05-24T11:49:07.774Z,770.20
2023-05-24T11:51:37.438Z,999.90
2023-05-24T11:54:05.553Z,708.20
2023-05-24T11:56:34.112Z,999.90
2023-05-24T11:59:18.125Z,999.90
2023-05-24T12:01:46.035Z,999.90
2023-05-24T12:04:13.982Z,999.90
2023-05-24T12:06:43.409Z,999.90
2023-05-24T12:09:14.190Z,728.03
2023-05-24T12:11:42.897Z,999.90
2023-05-24T12:14:14.586Z,999.90
2023-05-24T12:16:45.532Z,999.90
2023-05-24T12:19:32.543Z,999.90
2023-05-24T12:22:02.448Z,999.90
2023-05-24T12:24:32.423Z,999.90
2023-05-24T12:27:02.679Z,999.90
2023-05-24T12:29:34.949Z,999.90
2023-05-24T12:32:04.938Z,999.90
2023-05-24T12:34:33.535Z,999.90
2023-05-24T12:37:01.775Z,999.90
2023-05-24T12:39:31.800Z,999.90
2023-05-24T12:42:02.072Z,999.90
2023-05-24T12:44:32.280Z,999.90
2023-05-24T12:47:00.602Z,999.90
2023-05-24T12:49:29.998Z,999.90
2023-05-24T12:51:57.878Z,999.90
2023-05-24T12:54:26.988Z,999.90
2023-05-24T12:56:57.228Z,999.90
2023-05-24T12:59:25.619Z,999.90
2023-05-24T13:01:53.982Z,999.90
2023-05-24T13:04:23.418Z,999.90
2023-05-24T13:06:52.724Z,999.90
2023-05-24T13:09:21.976Z,999.90
2023-05-24T13:11:50.509Z,999.90
2023-05-24T13:14:19.582Z,999.90
2023-05-24T13:16:47.539Z,999.90
2023-05-24T13:19:16.565Z,999.90
2023-05-24T13:21:44.461Z,999.90
2023-05-24T13:24:17.560Z,999.90
2023-05-24T13:26:46.100Z,999.90
2023-05-24T13:31:45.325Z,999.90
2023-05-24T13:34:13.840Z,999.90
2023-05-24T13:36:42.036Z,999.90
2023-05-24T13:41:44.045Z,999.90
2023-05-24T13:44:12.460Z,999.90
2023-05-24T13:46:41.030Z,999.90
2023-05-24T13:49:10.150Z,999.90
2023-05-24T13:51:38.983Z,999.90
2023-05-24T13:54:08.063Z,999.90
2023-05-24T13:56:37.122Z,999.90
2023-05-24T13:59:07.622Z,999.90
2023-05-24T14:01:39.283Z,999.90
2023-05-24T14:04:07.902Z,999.90
2023-05-24T14:06:37.794Z,999.90
2023-05-24T14:09:07.554Z,999.90
2023-05-24T14:11:35.841Z,999.90
2023-05-24T14:16:36.751Z,999.90
2023-05-24T14:19:05.426Z,999.90
2023-05-24T14:21:36.476Z,999.90
2023-05-24T14:24:04.676Z,999.90
2023-05-24T14:26:32.853Z,999.90
2023-05-24T14:29:01.582Z,999.90
2023-05-24T14:31:29.521Z,999.90
2023-05-24T14:33:58.795Z,999.90
2023-05-24T14:36:26.621Z,999.90
2023-05-24T14:38:54.509Z,999.90
2023-05-24T14:41:22.541Z,999.90
2023-05-24T14:43:51.113Z,999.90
2023-05-24T14:46:18.961Z,999.90
2023-05-24T14:48:46.901Z,999.90
2023-05-24T14:51:16.114Z,999.90
2023-05-24T14:53:43.953Z,999.90
2023-05-24T14:56:13.989Z,999.90
2023-05-24T14:58:42.140Z,999.90
2023-05-24T15:01:10.048Z,999.90
2023-05-24T15:03:37.993Z,999.90
2023-05-24T15:06:06.273Z,999.90
2023-05-24T15:08:35.969Z,999.90
2023-05-24T15:11:05.044Z,999.90
2023-05-24T15:13:33.080Z,999.90
2023-05-24T15:16:01.259Z,999.90
2023-05-24T15:18:32.090Z,999.90
2023-05-24T15:21:00.326Z,999.90
2023-05-24T15:23:28.406Z,999.90
2023-05-24T15:25:57.534Z,999.90
2023-05-24T15:28:26.614Z,999.90
2023-05-24T15:30:54.953Z,999.90
2023-05-24T15:33:22.917Z,999.90
2023-05-24T15:35:50.853Z,999.90
2023-05-24T15:38:18.717Z,999.90
2023-05-24T15:40:46.712Z,999.90
2023-05-24T15:43:16.413Z,999.90
2023-05-24T15:45:44.590Z,999.90
2023-05-24T15:48:12.769Z,999.90
2023-05-24T15:50:59.959Z,999.90
2023-05-24T15:53:28.592Z,999.90
2023-05-24T15:55:57.366Z,999.90
2023-05-24T15:58:26.576Z,999.90
2023-05-24T16:00:54.572Z,999.90
2023-05-24T16:03:22.499Z,999.90
2023-05-24T16:05:50.544Z,999.90
2023-05-24T16:08:18.709Z,999.90
2023-05-24T16:10:46.654Z,999.90
2023-05-24T16:13:14.633Z,999.90
2023-05-24T16:15:47.540Z,999.90
2023-05-24T16:18:18.064Z,999.90
2023-05-24T16:20:46.765Z,999.90
2023-05-24T16:23:14.746Z,999.90
2023-05-24T16:25:42.582Z,999.90
2023-05-24T16:28:10.373Z,999.90
2023-05-24T16:30:38.134Z,999.90
2023-05-24T16:33:07.359Z,999.90
2023-05-24T16:35:35.667Z,999.90
2023-05-24T16:38:03.442Z,999.90
2023-05-24T16:40:31.168Z,999.90
2023-05-24T16:42:58.954Z,999.90
2023-05-24T16:45:26.724Z,999.90
2023-05-24T16:47:54.612Z,999.90
2023-05-24T16:50:23.796Z,999.90
2023-05-24T16:52:51.668Z,999.90
2023-05-24T16:55:19.837Z,999.90
2023-05-24T16:57:47.747Z,999.90
2023-05-24T17:00:16.308Z,999.90
2023-05-24T17:02:44.152Z,999.90
2023-05-24T17:05:12.402Z,677.63
2023-05-24T17:07:42.691Z,709.43
2023-05-24T17:10:10.694Z,713.70
2023-05-24T17:12:38.497Z,999.90
2023-05-24T17:15:07.042Z,736.17
2023-05-24T17:17:34.958Z,762.60
2023-05-24T17:20:02.882Z,757.07
2023-05-24T17:22:30.805Z,817.53
2023-05-24T17:24:59.936Z,999.90
2023-05-24T17:27:27.765Z,999.90
2023-05-24T17:29:55.954Z,999.90
2023-05-24T17:32:44.046Z,999.90
2023-05-24T17:35:32.113Z,999.90
2023-05-24T17:38:20.175Z,999.90
2023-05-24T17:41:10.034Z,706.77
2023-05-24T17:43:58.184Z,999.90
2023-05-24T17:46:46.350Z,726.67
2023-05-24T17:49:34.434Z,720.87
2023-05-24T17:52:22.610Z,755.17
2023-05-24T17:55:11.422Z,761.67
2023-05-24T17:58:01.945Z,787.17
2023-05-24T18:00:49.999Z,762.57
2023-05-24T18:03:39.142Z,797.03
2023-05-24T18:06:27.331Z,781.30
2023-05-24T18:09:16.158Z,846.47
2023-05-24T18:12:04.542Z,832.63
2023-05-24T18:14:53.908Z,819.10
2023-05-24T18:17:42.003Z,812.57
2023-05-24T18:20:30.326Z,84.63
2023-05-24T18:23:18.472Z,828.03
2023-05-24T18:26:11.216Z,853.03
2023-05-24T18:28:59.263Z,820.20
2023-05-24T18:31:49.629Z,841.87
2023-05-24T18:34:37.708Z,792.53
2023-05-24T18:37:25.753Z,999.90
2023-05-24T18:40:15.697Z,999.90
2023-05-24T18:43:03.760Z,999.90
2023-05-24T18:45:51.878Z,999.90
2023-05-24T18:48:41.624Z,999.90
2023-05-24T18:51:29.743Z,999.90
2023-05-24T18:54:17.830Z,999.90
2023-05-24T18:57:06.126Z,999.90
2023-05-24T18:59:54.152Z,999.90
2023-05-24T19:02:42.344Z,999.90
2023-05-24T19:05:31.834Z,999.90
2023-05-24T19:08:19.880Z,999.90
2023-05-24T19:11:09.508Z,999.90
2023-05-24T19:13:57.553Z,999.90
2023-05-24T19:16:45.635Z,999.90
2023-05-24T19:19:34.007Z,999.90
2023-05-24T19:22:23.464Z,999.90
2023-05-24T19:25:11.577Z,999.90
2023-05-24T19:28:00.716Z,999.90
2023-05-24T19:30:49.223Z,999.90
2023-05-24T19:33:45.377Z,999.90
2023-05-24T19:36:41.348Z,999.90
2023-05-24T19:39:30.849Z,999.90
2023-05-24T19:42:18.901Z,999.90
2023-05-24T19:45:09.381Z,999.90
2023-05-24T19:47:57.498Z,999.90
2023-05-24T19:50:47.978Z,999.90
2023-05-24T19:53:36.785Z,999.90
2023-05-24T19:56:26.715Z,999.90
2023-05-24T19:59:14.757Z,999.90
2023-05-24T20:02:02.880Z,999.90
2023-05-24T20:04:51.101Z,999.90
2023-05-24T20:07:39.133Z,999.90
2023-05-24T20:10:29.840Z,999.90
2023-05-24T20:13:19.459Z,999.90
2023-05-24T20:16:07.904Z,999.90
2023-05-24T20:18:55.968Z,999.90
2023-05-24T20:21:44.650Z,999.90
2023-05-24T20:24:32.731Z,999.90
2023-05-24T20:27:21.312Z,999.90
2023-05-24T20:30:12.567Z,999.90
2023-05-24T20:33:01.740Z,999.90
2023-05-24T20:35:49.901Z,999.90
2023-05-24T20:38:39.568Z,999.90
2023-05-24T20:41:30.275Z,999.90
2023-05-24T20:44:18.467Z,999.90
2023-05-24T20:47:07.991Z,999.90
2023-05-24T20:49:56.083Z,999.90
2023-05-24T20:52:44.198Z,999.90
2023-05-24T20:55:32.256Z,999.90
2023-05-24T20:58:20.687Z,999.90
2023-05-24T21:01:09.234Z,999.90
2023-05-24T21:03:58.624Z,999.90
2023-05-24T21:06:46.674Z,999.90
2023-05-24T21:09:34.923Z,999.90
2023-05-24T21:12:23.164Z,999.90
2023-05-24T21:15:11.645Z,999.90
2023-05-24T21:17:59.801Z,999.90
2023-05-24T21:20:49.533Z,999.90
2023-05-24T21:23:37.565Z,999.90
2023-05-24T21:26:26.433Z,999.90
2023-05-24T21:29:14.585Z,999.90
2023-05-24T21:32:02.613Z,999.90
2023-05-24T21:34:50.771Z,999.90
2023-05-24T21:37:40.171Z,999.90
2023-05-24T21:40:28.235Z,999.90
2023-05-24T21:43:17.807Z,999.90
2023-05-24T21:46:06.180Z,999.90
2023-05-24T21:48:54.225Z,999.90
2023-05-24T21:51:42.268Z,999.90
2023-05-24T21:54:31.645Z,999.90
2023-05-24T21:57:19.708Z,999.90
2023-05-24T22:00:09.152Z,999.90
2023-05-24T22:02:57.341Z,999.90
2023-05-24T22:05:45.522Z,999.90
2023-05-24T22:08:33.901Z,999.90
2023-05-24T22:11:23.373Z,999.90
2023-05-24T22:14:11.500Z,999.90
2023-05-24T22:16:59.553Z,999.90
2023-05-24T22:19:47.979Z,999.90
2023-05-24T22:22:36.570Z,999.90
2023-05-24T22:25:24.769Z,999.90
2023-05-24T22:28:14.244Z,999.90
2023-05-24T22:31:03.113Z,999.90
2023-05-24T22:33:51.192Z,999.90
2023-05-24T22:36:39.354Z,999.90
2023-05-24T22:39:27.451Z,999.90
2023-05-24T22:42:15.476Z,999.90
2023-05-24T22:45:05.554Z,999.90
2023-05-24T22:47:54.055Z,999.90
2023-05-24T22:50:42.291Z,999.90
2023-05-24T22:53:30.313Z,999.90
2023-05-24T22:56:18.385Z,999.90
2023-05-24T22:59:06.816Z,999.90
2023-05-24T23:01:56.191Z,999.90
2023-05-24T23:04:46.004Z,999.90
2023-05-24T23:07:34.367Z,999.90
2023-05-24T23:10:22.458Z,999.90
2023-05-24T23:13:10.488Z,999.90
2023-05-24T23:15:58.613Z,999.90
2023-05-24T23:18:48.492Z,999.90
2023-05-24T23:21:37.016Z,999.90
2023-05-24T23:24:26.800Z,999.90
2023-05-24T23:27:14.965Z,999.90
2023-05-24T23:30:03.008Z,999.90
2023-05-24T23:32:51.074Z,999.90
2023-05-24T23:35:40.628Z,999.90
2023-05-24T23:38:28.723Z,999.90
2023-05-24T23:41:16.761Z,999.90
2023-05-24T23:44:04.813Z,999.90
2023-05-24T23:46:53.185Z,999.90
2023-05-24T23:49:41.247Z,999.90
2023-05-24T23:52:31.228Z,999.90
2023-05-24T23:55:19.277Z,999.90
2023-05-24T23:58:07.906Z,999.90
